createdAt,value
2023-05-06T00:01:56.282Z,11.97
2023-05-06T00:04:24.421Z,11.95
2023-05-06T00:06:52.828Z,11.94
2023-05-06T00:09:24.005Z,11.93
2023-05-06T00:11:51.969Z,11.96
2023-05-06T00:14:19.700Z,11.88
2023-05-06T00:16:47.525Z,11.90
2023-05-06T00:19:15.489Z,11.79
2023-05-06T00:21:43.156Z,11.83
2023-05-06T00:24:11.361Z,11.82
2023-05-06T00:26:40.438Z,11.81
2023-05-06T00:29:08.124Z,11.82
2023-05-06T00:31:36.030Z,11.80
2023-05-06T00:34:03.697Z,11.79
2023-05-06T00:36:31.651Z,11.77
2023-05-06T00:38:59.384Z,11.73
2023-05-06T00:41:27.210Z,11.69
2023-05-06T00:43:56.262Z,11.68
2023-05-06T00:46:24.056Z,11.57
2023-05-06T00:48:52.386Z,11.59
2023-05-06T00:51:20.054Z,11.56
2023-05-06T00:53:47.958Z,11.55
2023-05-06T00:56:19.965Z,11.52
2023-05-06T00:58:49.473Z,11.52
2023-05-06T01:01:18.458Z,11.49
2023-05-06T01:03:47.090Z,11.44
2023-05-06T01:06:18.878Z,11.44
2023-05-06T01:08:56.289Z,11.40
2023-05-06T01:11:32.715Z,11.37
2023-05-06T01:14:03.868Z,11.34
2023-05-06T01:16:36.460Z,11.32
2023-05-06T01:19:09.853Z,11.30
2023-05-06T01:21:41.582Z,11.28
2023-05-06T01:24:10.777Z,11.24
2023-05-06T01:26:38.469Z,11.22
2023-05-06T01:29:06.433Z,11.21
2023-05-06T01:31:52.052Z,11.18
2023-05-06T01:34:28.958Z,11.18
2023-05-06T01:37:03.823Z,11.14
2023-05-06T01:39:34.480Z,11.13
2023-05-06T01:42:03.912Z,11.06
2023-05-06T01:44:35.039Z,11.06
2023-05-06T01:47:03.396Z,11.00
2023-05-06T01:49:31.364Z,11.00
2023-05-06T01:51:59.668Z,10.90
2023-05-06T01:54:27.436Z,10.92
2023-05-06T01:56:56.533Z,10.94
2023-05-06T01:59:24.200Z,10.95
2023-05-06T02:01:51.998Z,10.93
2023-05-06T02:04:19.774Z,10.91
2023-05-06T02:06:47.417Z,10.93
2023-05-06T02:09:15.128Z,10.92
2023-05-06T02:11:42.856Z,10.90
2023-05-06T02:14:11.843Z,10.89
2023-05-06T02:16:39.558Z,10.92
2023-05-06T02:19:07.342Z,10.94
2023-05-06T02:21:35.051Z,10.90
2023-05-06T02:24:02.744Z,10.90
2023-05-06T02:26:30.573Z,10.88
2023-05-06T02:28:58.269Z,10.90
2023-05-06T02:31:27.476Z,10.86
2023-05-06T02:33:55.260Z,10.90
2023-05-06T02:36:22.913Z,10.92
2023-05-06T02:38:50.608Z,10.94
2023-05-06T02:41:18.252Z,10.94
2023-05-06T02:43:45.959Z,10.94
2023-05-06T02:46:13.674Z,10.91
2023-05-06T02:48:43.025Z,10.90
2023-05-06T02:51:11.924Z,10.91
2023-05-06T02:53:39.490Z,10.91
2023-05-06T02:56:07.488Z,10.91
2023-05-06T02:58:35.185Z,10.93
2023-05-06T03:01:02.960Z,10.93
2023-05-06T03:03:30.651Z,10.93
2023-05-06T03:05:59.637Z,10.92
2023-05-06T03:08:27.372Z,10.90
2023-05-06T03:10:55.072Z,10.92
2023-05-06T03:13:23.037Z,10.91
2023-05-06T03:15:53.718Z,10.87
2023-05-06T03:18:21.443Z,10.87
2023-05-06T03:20:50.602Z,10.83
2023-05-06T03:23:19.642Z,10.85
2023-05-06T03:25:47.389Z,10.82
2023-05-06T03:28:15.106Z,10.80
2023-05-06T03:30:42.868Z,10.74
2023-05-06T03:33:10.756Z,10.76
2023-05-06T03:35:38.596Z,10.73
2023-05-06T03:38:06.327Z,10.73
2023-05-06T03:40:35.483Z,10.72
2023-05-06T03:43:03.195Z,10.70
2023-05-06T03:45:30.897Z,10.71
2023-05-06T03:47:58.737Z,10.70
2023-05-06T03:50:26.855Z,10.65
2023-05-06T03:52:54.750Z,10.63
2023-05-06T03:55:22.422Z,10.44
2023-05-06T03:57:51.444Z,10.62
2023-05-06T04:00:19.144Z,10.60
2023-05-06T04:02:46.900Z,10.59
2023-05-06T04:05:14.713Z,10.54
2023-05-06T04:07:42.387Z,10.52
2023-05-06T04:10:10.919Z,10.53
2023-05-06T04:12:38.694Z,10.52
2023-05-06T04:15:09.368Z,10.52
2023-05-06T04:17:37.251Z,10.52
2023-05-06T04:20:07.041Z,10.49
2023-05-06T04:22:34.759Z,10.54
2023-05-06T04:25:02.535Z,10.53
2023-05-06T04:27:32.111Z,10.54
2023-05-06T04:29:59.988Z,10.54
2023-05-06T04:32:29.027Z,10.49
2023-05-06T04:34:57.232Z,10.57
2023-05-06T04:37:25.037Z,10.58
2023-05-06T04:39:52.707Z,10.58
2023-05-06T04:42:20.348Z,10.63
2023-05-06T04:44:48.816Z,10.67
2023-05-06T04:47:17.064Z,10.72
2023-05-06T04:49:46.130Z,10.81
2023-05-06T04:52:13.721Z,10.87
2023-05-06T04:54:42.168Z,10.95
2023-05-06T04:57:11.524Z,11.01
2023-05-06T04:59:39.228Z,11.12
2023-05-06T05:02:06.991Z,11.27
2023-05-06T05:04:34.758Z,11.35
2023-05-06T05:07:03.886Z,11.31
2023-05-06T05:09:31.507Z,11.27
2023-05-06T05:11:59.245Z,11.30
2023-05-06T05:14:26.900Z,11.41
2023-05-06T05:16:54.667Z,11.29
2023-05-06T05:19:22.461Z,11.34
2023-05-06T05:21:50.149Z,11.33
2023-05-06T05:24:19.212Z,11.42
2023-05-06T05:26:46.868Z,11.51
2023-05-06T05:29:14.591Z,11.34
2023-05-06T05:31:42.333Z,11.62
2023-05-06T05:34:10.326Z,11.64
2023-05-06T05:36:38.027Z,11.62
2023-05-06T05:39:05.767Z,11.86
2023-05-06T05:41:34.780Z,11.69
2023-05-06T05:44:02.814Z,11.89
2023-05-06T05:46:30.678Z,11.79
2023-05-06T05:48:58.407Z,11.81
2023-05-06T05:51:26.053Z,11.80
2023-05-06T05:53:53.713Z,11.96
2023-05-06T05:56:21.461Z,12.09
2023-05-06T05:58:50.519Z,12.31
2023-05-06T06:01:18.765Z,11.95
2023-05-06T06:03:46.704Z,12.06
2023-05-06T06:06:14.643Z,12.25
2023-05-06T06:08:43.745Z,12.32
2023-05-06T06:11:11.400Z,12.25
2023-05-06T06:13:39.130Z,12.18
2023-05-06T06:16:08.828Z,12.34
2023-05-06T06:18:36.558Z,12.43
2023-05-06T06:21:04.318Z,12.32
2023-05-06T06:23:32.028Z,12.43
2023-05-06T06:25:59.979Z,12.45
2023-05-06T06:28:27.665Z,12.34
2023-05-06T06:30:55.481Z,12.76
2023-05-06T06:33:24.483Z,13.02
2023-05-06T06:35:52.231Z,13.01
2023-05-06T06:38:19.889Z,12.87
2023-05-06T06:40:47.572Z,12.82
2023-05-06T06:43:15.419Z,12.86
2023-05-06T06:45:43.159Z,13.05
2023-05-06T06:48:11.382Z,13.11
2023-05-06T06:50:40.635Z,13.12
2023-05-06T06:53:08.261Z,13.44
2023-05-06T06:55:36.237Z,13.47
2023-05-06T06:58:04.342Z,13.73
2023-05-06T07:00:31.993Z,13.98
2023-05-06T07:02:59.684Z,13.89
2023-05-06T07:05:27.817Z,13.91
2023-05-06T07:07:56.973Z,14.01
2023-05-06T07:10:24.674Z,14.46
2023-05-06T07:12:52.409Z,14.65
2023-05-06T07:15:20.332Z,14.18
2023-05-06T07:17:48.079Z,14.09
2023-05-06T07:20:16.205Z,14.28
2023-05-06T07:22:45.718Z,14.20
2023-05-06T07:25:15.492Z,14.37
2023-05-06T07:27:43.206Z,14.95
2023-05-06T07:30:12.019Z,14.96
2023-05-06T07:32:40.989Z,15.34
2023-05-06T07:35:10.016Z,15.77
2023-05-06T07:37:37.974Z,16.06
2023-05-06T07:40:06.947Z,16.13
2023-05-06T07:42:36.101Z,16.46
2023-05-06T07:45:03.894Z,16.59
2023-05-06T07:47:33.081Z,16.50
2023-05-06T07:50:00.970Z,15.99
2023-05-06T07:52:28.856Z,16.62
2023-05-06T07:54:56.508Z,16.70
2023-05-06T07:57:24.210Z,16.57
2023-05-06T07:59:53.818Z,16.90
2023-05-06T08:02:21.799Z,17.10
2023-05-06T08:04:51.612Z,17.26
2023-05-06T08:07:20.063Z,17.15
2023-05-06T08:09:47.807Z,17.17
2023-05-06T08:12:15.833Z,17.38
2023-05-06T08:14:43.472Z,17.42
2023-05-06T08:17:14.117Z,17.55
2023-05-06T08:19:41.946Z,17.83
2023-05-06T08:22:10.098Z,17.89
2023-05-06T08:24:37.817Z,17.05
2023-05-06T08:27:05.455Z,16.57
2023-05-06T08:29:33.135Z,16.97
2023-05-06T08:32:01.535Z,17.53
2023-05-06T08:34:30.921Z,18.04
2023-05-06T08:36:58.604Z,18.14
2023-05-06T08:39:27.844Z,18.11
2023-05-06T08:41:58.960Z,18.53
2023-05-06T08:44:26.950Z,18.18
2023-05-06T08:46:54.693Z,18.46
2023-05-06T08:49:22.625Z,18.87
2023-05-06T08:51:53.182Z,18.96
2023-05-06T08:54:24.810Z,18.90
2023-05-06T08:56:56.395Z,19.90
2023-05-06T08:59:26.749Z,19.10
2023-05-06T09:01:54.512Z,19.66
2023-05-06T09:04:22.379Z,20.07
2023-05-06T09:06:51.476Z,20.46
2023-05-06T09:09:19.230Z,20.18
2023-05-06T09:11:48.281Z,19.71
2023-05-06T09:14:17.924Z,20.28
2023-05-06T09:16:47.831Z,21.34
2023-05-06T09:19:16.242Z,21.13
2023-05-06T09:21:44.855Z,20.53
2023-05-06T09:24:15.996Z,20.64
2023-05-06T09:26:45.626Z,20.60
2023-05-06T09:29:13.985Z,20.41
2023-05-06T09:31:42.261Z,19.66
2023-05-06T09:34:09.915Z,19.49
2023-05-06T09:36:37.969Z,18.71
2023-05-06T09:39:06.159Z,19.41
2023-05-06T09:41:35.197Z,20.09
2023-05-06T09:44:03.105Z,20.59
2023-05-06T09:46:31.363Z,19.95
2023-05-06T09:48:59.972Z,19.90
2023-05-06T09:51:28.815Z,20.28
2023-05-06T09:53:57.915Z,20.35
2023-05-06T09:56:26.856Z,20.19
2023-05-06T09:58:56.820Z,20.31
2023-05-06T10:01:35.428Z,20.03
2023-05-06T10:04:07.087Z,19.78
2023-05-06T10:06:39.304Z,19.07
2023-05-06T10:09:07.959Z,19.26
2023-05-06T10:11:36.848Z,19.94
2023-05-06T10:14:07.072Z,20.47
2023-05-06T10:16:35.851Z,20.85
2023-05-06T10:19:05.976Z,20.73
2023-05-06T10:21:37.025Z,20.22
2023-05-06T10:24:09.065Z,19.95
2023-05-06T10:26:38.057Z,19.76
2023-05-06T10:29:10.705Z,20.25
2023-05-06T10:31:47.301Z,20.68
2023-05-06T10:34:19.433Z,21.25
2023-05-06T10:36:48.595Z,19.94
2023-05-06T10:39:16.828Z,20.32
2023-05-06T10:41:45.374Z,20.94
2023-05-06T10:44:14.498Z,20.79
2023-05-06T10:46:59.720Z,20.81
2023-05-06T10:49:29.061Z,20.92
2023-05-06T10:52:14.026Z,21.65
2023-05-06T10:54:59.678Z,20.83
2023-05-06T10:57:41.154Z,20.95
2023-05-06T11:00:13.057Z,20.66
2023-05-06T11:02:41.162Z,20.61
2023-05-06T11:05:10.770Z,20.27
2023-05-06T11:07:38.764Z,20.08
2023-05-06T11:10:08.168Z,20.12
2023-05-06T11:12:46.920Z,20.80
2023-05-06T11:15:26.460Z,20.42
2023-05-06T11:17:55.689Z,20.88
2023-05-06T11:20:25.625Z,20.51
2023-05-06T11:22:54.168Z,21.08
2023-05-06T11:25:47.119Z,21.43
2023-05-06T11:28:16.507Z,21.50
2023-05-06T11:30:55.255Z,21.71
2023-05-06T11:33:26.084Z,21.77
2023-05-06T11:35:54.288Z,21.65
2023-05-06T11:38:22.041Z,22.16
2023-05-06T11:40:50.188Z,22.30
2023-05-06T11:43:18.088Z,22.04
2023-05-06T11:45:49.026Z,21.06
2023-05-06T11:48:17.927Z,20.51
2023-05-06T11:50:47.214Z,21.51
2023-05-06T11:53:16.803Z,22.20
2023-05-06T11:55:45.220Z,22.00
2023-05-06T11:58:14.363Z,22.22
2023-05-06T12:00:51.428Z,22.30
2023-05-06T12:03:20.105Z,22.57
2023-05-06T12:05:48.939Z,22.04
2023-05-06T12:08:26.807Z,21.33
2023-05-06T12:10:57.027Z,21.50
2023-05-06T12:13:25.049Z,22.53
2023-05-06T12:15:55.457Z,23.64
2023-05-06T12:18:24.788Z,23.71
2023-05-06T12:20:54.850Z,22.25
2023-05-06T12:23:22.932Z,22.38
2023-05-06T12:26:02.341Z,23.36
2023-05-06T12:28:30.160Z,22.74
2023-05-06T12:30:59.250Z,23.14
2023-05-06T12:33:27.012Z,23.32
2023-05-06T12:35:57.020Z,23.41
2023-05-06T12:38:25.296Z,23.69
2023-05-06T12:40:55.349Z,23.38
2023-05-06T12:43:29.941Z,23.84
2023-05-06T12:46:06.302Z,23.77
2023-05-06T12:48:34.357Z,23.38
2023-05-06T12:51:02.367Z,24.18
2023-05-06T12:53:35.243Z,24.35
2023-05-06T12:56:02.999Z,23.69
2023-05-06T12:58:30.747Z,22.68
2023-05-06T13:00:58.463Z,21.73
2023-05-06T13:03:27.690Z,21.18
2023-05-06T13:05:55.394Z,21.50
2023-05-06T13:08:23.143Z,21.64
2023-05-06T13:10:50.758Z,21.19
2023-05-06T13:13:18.615Z,21.15
2023-05-06T13:15:46.487Z,21.74
2023-05-06T13:18:14.225Z,21.83
2023-05-06T13:20:43.323Z,21.96
2023-05-06T13:23:11.017Z,22.32
2023-05-06T13:25:51.708Z,22.83
2023-05-06T13:28:26.981Z,23.67
2023-05-06T13:30:54.634Z,24.80
2023-05-06T13:33:22.384Z,24.41
2023-05-06T13:35:51.495Z,25.62
2023-05-06T13:38:19.167Z,24.81
2023-05-06T13:40:47.978Z,26.90
2023-05-06T13:43:15.595Z,26.40
2023-05-06T13:45:44.055Z,26.02
2023-05-06T13:48:11.818Z,24.63
2023-05-06T13:50:39.724Z,24.35
2023-05-06T13:53:08.801Z,24.63
2023-05-06T13:55:36.566Z,26.65
2023-05-06T13:58:04.958Z,27.19
2023-05-06T14:00:32.924Z,25.17
2023-05-06T14:03:00.643Z,25.56
2023-05-06T14:05:28.286Z,27.68
2023-05-06T14:07:56.005Z,26.30
2023-05-06T14:10:25.061Z,27.45
2023-05-06T14:12:52.826Z,27.23
2023-05-06T14:15:20.752Z,25.53
2023-05-06T14:17:48.530Z,25.27
2023-05-06T14:20:16.360Z,25.16
2023-05-06T14:22:45.181Z,24.17
2023-05-06T14:25:13.387Z,24.86
2023-05-06T14:27:42.431Z,25.12
2023-05-06T14:30:10.687Z,26.13
2023-05-06T14:32:38.498Z,25.51
2023-05-06T14:35:07.346Z,24.53
2023-05-06T14:37:35.077Z,23.54
2023-05-06T14:40:04.409Z,23.58
2023-05-06T14:42:33.185Z,24.23
2023-05-06T14:45:02.306Z,24.40
2023-05-06T14:47:29.995Z,25.20
2023-05-06T14:49:58.008Z,25.16
2023-05-06T14:52:25.833Z,26.16
2023-05-06T14:54:53.766Z,24.92
2023-05-06T14:57:21.760Z,24.69
2023-05-06T14:59:49.498Z,24.55
2023-05-06T15:02:18.768Z,24.28
2023-05-06T15:04:46.980Z,24.06
2023-05-06T15:07:14.780Z,23.56
2023-05-06T15:09:44.040Z,23.84
2023-05-06T15:12:12.170Z,23.68
2023-05-06T15:14:39.815Z,23.57
2023-05-06T15:17:07.789Z,23.01
2023-05-06T15:19:37.024Z,22.49
2023-05-06T15:22:04.676Z,23.06
2023-05-06T15:24:32.434Z,22.82
2023-05-06T15:27:00.073Z,22.29
2023-05-06T15:29:27.867Z,22.13
2023-05-06T15:31:55.642Z,22.31
2023-05-06T15:34:23.372Z,22.47
2023-05-06T15:36:53.969Z,22.05
2023-05-06T15:39:22.066Z,22.24
2023-05-06T15:41:50.621Z,22.76
2023-05-06T15:44:20.722Z,23.10
2023-05-06T15:46:48.822Z,22.84
2023-05-06T15:51:47.394Z,21.94
2023-05-06T15:54:18.224Z,22.53
2023-05-06T15:56:46.305Z,22.64
2023-05-06T15:59:14.021Z,22.90
2023-05-06T16:02:24.570Z,22.23
2023-05-06T16:04:31.466Z,22.67
2023-05-06T16:06:59.398Z,22.47
2023-05-06T16:09:28.423Z,22.53
2023-05-06T16:11:56.088Z,22.24
2023-05-06T16:14:23.852Z,22.38
2023-05-06T16:16:51.687Z,22.13
2023-05-06T16:19:19.456Z,21.98
2023-05-06T16:21:48.180Z,21.71
2023-05-06T16:24:16.113Z,21.66
2023-05-06T16:26:45.297Z,21.90
2023-05-06T16:29:13.086Z,21.63
2023-05-06T16:31:40.833Z,21.48
2023-05-06T16:34:08.586Z,21.51
2023-05-06T16:36:36.233Z,21.65
2023-05-06T16:39:06.175Z,21.84
2023-05-06T16:41:33.861Z,21.67
2023-05-06T16:44:03.344Z,22.07
2023-05-06T16:46:31.098Z,22.13
2023-05-06T16:48:58.907Z,21.75
2023-05-06T16:51:27.039Z,21.57
2023-05-06T16:53:54.731Z,21.22
2023-05-06T16:56:22.709Z,21.71
2023-05-06T16:58:50.472Z,21.77
2023-05-06T17:01:19.527Z,21.95
2023-05-06T17:03:47.240Z,21.57
2023-05-06T17:06:14.964Z,21.43
2023-05-06T17:08:42.812Z,21.65
2023-05-06T17:11:10.469Z,21.74
2023-05-06T17:13:38.084Z,21.48
2023-05-06T17:16:06.267Z,21.69
2023-05-06T17:18:35.426Z,21.71
2023-05-06T17:21:03.156Z,21.78
2023-05-06T17:23:30.948Z,21.76
2023-05-06T17:25:58.613Z,21.43
2023-05-06T17:28:26.742Z,21.43
2023-05-06T17:30:54.597Z,20.96
2023-05-06T17:33:22.833Z,20.82
2023-05-06T17:35:51.893Z,20.83
2023-05-06T17:38:19.564Z,20.47
2023-05-06T17:40:47.287Z,20.56
2023-05-06T17:43:14.960Z,20.59
2023-05-06T17:45:42.633Z,20.54
2023-05-06T17:48:10.441Z,20.52
2023-05-06T17:50:38.220Z,20.34
2023-05-06T17:53:07.222Z,18.97
2023-05-06T17:55:34.975Z,18.53
2023-05-06T17:58:02.711Z,17.78
2023-05-06T18:00:30.382Z,17.11
2023-05-06T18:02:58.167Z,16.21
2023-05-06T18:05:26.426Z,16.27
2023-05-06T18:07:54.172Z,15.61
2023-05-06T18:10:23.486Z,15.63
2023-05-06T18:12:51.398Z,15.62
2023-05-06T18:15:19.152Z,15.68
2023-05-06T18:17:46.878Z,15.52
2023-05-06T18:20:15.000Z,15.30
2023-05-06T18:23:00.555Z,15.40
2023-05-06T18:25:29.692Z,15.74
2023-05-06T18:27:57.810Z,15.55
2023-05-06T18:37:15.232Z,15.58
2023-05-06T18:39:43.552Z,15.79
2023-05-06T18:42:12.666Z,15.67
2023-05-06T18:44:40.619Z,15.77
2023-05-06T18:47:08.451Z,15.81
2023-05-06T19:21:10.036Z,16.71
2023-05-06T19:23:37.845Z,16.72
2023-05-06T19:26:06.709Z,16.61
2023-05-06T19:28:34.942Z,16.67
2023-05-06T19:33:34.552Z,16.73
2023-05-06T19:36:02.395Z,16.72
2023-05-06T19:38:31.502Z,16.74
2023-05-06T19:40:59.241Z,16.76
2023-05-06T19:43:27.050Z,16.63
2023-05-06T19:45:54.847Z,16.73
2023-05-06T19:48:23.754Z,16.71
2023-05-06T19:50:53.787Z,16.71
2023-05-06T19:53:22.797Z,16.69
2023-05-06T19:55:52.079Z,16.62
2023-05-06T19:58:19.804Z,16.63
2023-05-06T20:00:47.583Z,16.52
2023-05-06T20:03:15.406Z,16.69
2023-05-06T20:05:43.183Z,16.57
2023-05-06T20:08:12.236Z,16.59
2023-05-06T20:10:39.997Z,16.57
2023-05-06T20:13:10.715Z,16.55
2023-05-06T20:15:38.570Z,16.45
2023-05-06T20:18:07.251Z,16.47
2023-05-06T20:20:35.987Z,16.48
2023-05-06T20:23:04.068Z,16.46
2023-05-06T20:25:32.256Z,16.44
2023-05-06T20:28:00.284Z,16.46
2023-05-06T20:30:29.367Z,16.30
2023-05-06T20:32:57.279Z,16.39
2023-05-06T20:35:25.647Z,16.42
2023-05-06T20:37:54.417Z,16.39
2023-05-06T20:40:22.318Z,16.36
2023-05-06T20:42:50.059Z,16.35
2023-05-06T20:45:17.897Z,16.09
2023-05-06T20:47:47.006Z,16.34
2023-05-06T20:50:17.161Z,16.31
2023-05-06T20:52:46.076Z,16.27
2023-05-06T20:55:15.223Z,16.13
2023-05-06T20:57:44.134Z,16.12
2023-05-06T21:00:12.757Z,16.21
2023-05-06T21:02:41.983Z,16.14
2023-05-06T21:05:11.893Z,16.02
2023-05-06T21:07:40.014Z,16.04
2023-05-06T21:10:08.352Z,15.97
2023-05-06T21:12:36.302Z,16.00
2023-05-06T21:15:04.629Z,16.01
2023-05-06T21:17:32.400Z,15.98
2023-05-06T21:20:00.375Z,15.99
2023-05-06T21:22:29.411Z,16.03
2023-05-06T21:24:57.047Z,16.01
2023-05-06T21:27:24.814Z,15.98
2023-05-06T21:29:52.535Z,15.97
2023-05-06T21:32:20.286Z,15.94
2023-05-06T21:34:48.013Z,15.91
2023-05-06T21:37:15.996Z,15.89
2023-05-06T21:39:45.070Z,15.90
2023-05-06T21:42:12.772Z,15.83
2023-05-06T21:44:40.476Z,15.76
2023-05-06T21:47:08.328Z,15.68
2023-05-06T21:49:36.094Z,15.57
2023-05-06T21:52:04.936Z,15.53
2023-05-06T21:54:32.542Z,15.55
2023-05-06T21:57:02.247Z,15.57
2023-05-06T21:59:30.079Z,15.53
2023-05-06T22:01:57.766Z,15.43
2023-05-06T22:04:26.297Z,15.46
2023-05-06T22:06:53.996Z,15.37
2023-05-06T22:09:22.104Z,15.38
2023-05-06T22:11:50.401Z,15.38
2023-05-06T22:14:21.973Z,15.38
2023-05-06T22:16:52.630Z,15.40
2023-05-06T22:19:20.370Z,15.39
2023-05-06T22:21:48.084Z,15.29
2023-05-06T22:24:15.885Z,15.30
2023-05-06T22:26:43.570Z,15.32
2023-05-06T22:29:11.444Z,15.36
2023-05-06T22:31:40.553Z,15.30
2023-05-06T22:34:08.360Z,15.31
2023-05-06T22:36:36.053Z,15.30
2023-05-06T22:39:03.794Z,15.30
2023-05-06T22:41:31.801Z,15.16
2023-05-06T22:44:00.475Z,15.12
2023-05-06T22:46:28.961Z,15.13
2023-05-06T22:48:58.038Z,14.97
2023-05-06T22:51:25.660Z,14.99
2023-05-06T22:53:53.275Z,14.97
2023-05-06T22:56:21.131Z,14.80
2023-05-06T22:58:48.835Z,14.60
2023-05-06T23:01:16.598Z,14.51
2023-05-06T23:03:44.415Z,14.64
2023-05-06T23:06:13.509Z,14.76
2023-05-06T23:08:41.196Z,14.79
2023-05-06T23:11:08.815Z,14.67
2023-05-06T23:13:36.968Z,14.63
2023-05-06T23:16:05.211Z,14.77
2023-05-06T23:18:32.895Z,14.84
2023-05-06T23:21:00.539Z,14.89
2023-05-06T23:23:30.053Z,14.90
2023-05-06T23:25:57.651Z,14.87
2023-05-06T23:28:25.475Z,14.70
2023-05-06T23:30:53.282Z,14.62
2023-05-06T23:33:20.979Z,14.69
2023-05-06T23:35:48.602Z,14.60
2023-05-06T23:38:16.309Z,14.70
2023-05-06T23:40:45.825Z,14.72
2023-05-06T23:43:13.430Z,14.77
2023-05-06T23:45:41.228Z,14.79
2023-05-06T23:48:08.936Z,14.74
2023-05-06T23:50:36.622Z,14.73
2023-05-06T23:53:04.387Z,14.45
2023-05-06T23:55:32.290Z,14.67
2023-05-06T23:58:01.343Z,14.60
